sensor_id;sensor_type;location;lat;lon;timestamp;pressure;altitude;pressure_sealevel;temperature;humidity
20656;BME280;10487;53.320;8.672;2023-04-22T00:01:28;100893.53;;;9.77;41.70
20656;BME280;10487;53.320;8.672;2023-04-22T00:04:30;100884.88;;;9.74;41.64
20656;BME280;10487;53.320;8.672;2023-04-22T00:07:32;100883.41;;;9.70;41.65
20656;BME280;10487;53.320;8.672;2023-04-22T00:10:34;100875.59;;;9.67;41.69
20656;BME280;10487;53.320;8.672;2023-04-22T00:13:35;100870.59;;;9.62;41.60
20656;BME280;10487;53.320;8.672;2023-04-22T00:16:37;100864.59;;;9.59;41.74
20656;BME280;10487;53.320;8.672;2023-04-22T00:19:40;100849.78;;;9.55;41.77
20656;BME280;10487;53.320;8.672;2023-04-22T00:22:42;100844.78;;;9.50;41.70
20656;BME280;10487;53.320;8.672;2023-04-22T00:25:43;100844.25;;;9.45;41.72
20656;BME280;10487;53.320;8.672;2023-04-22T00:28:45;100846.16;;;9.43;41.79
20656;BME280;10487;53.320;8.672;2023-04-22T00:31:47;100836.66;;;9.39;41.69
20656;BME280;10487;53.320;8.672;2023-04-22T00:34:49;100829.72;;;9.37;41.84
20656;BME280;10487;53.320;8.672;2023-04-22T00:37:50;100824.63;;;9.34;41.79
20656;BME280;10487;53.320;8.672;2023-04-22T00:40:52;100831.84;;;9.32;41.79
20656;BME280;10487;53.320;8.672;2023-04-22T00:43:54;100831.91;;;9.30;41.81
20656;BME280;10487;53.320;8.672;2023-04-22T00:46:55;100825.72;;;9.29;41.82
20656;BME280;10487;53.320;8.672;2023-04-22T00:49:57;100826.78;;;9.27;41.97
20656;BME280;10487;53.320;8.672;2023-04-22T00:52:59;100817.13;;;9.26;41.89
20656;BME280;10487;53.320;8.672;2023-04-22T00:56:01;100812.84;;;9.23;41.91
20656;BME280;10487;53.320;8.672;2023-04-22T00:59:02;100814.00;;;9.19;41.83
20656;BME280;10487;53.320;8.672;2023-04-22T01:02:05;100810.59;;;9.17;41.83
20656;BME280;10487;53.320;8.672;2023-04-22T01:05:07;100810.78;;;9.14;41.97
20656;BME280;10487;53.320;8.672;2023-04-22T01:08:10;100810.91;;;9.13;41.97
20656;BME280;10487;53.320;8.672;2023-04-22T01:11:12;100802.16;;;9.11;41.94
20656;BME280;10487;53.320;8.672;2023-04-22T01:14:14;100804.16;;;9.07;42.04
20656;BME280;10487;53.320;8.672;2023-04-22T01:17:16;100796.38;;;9.04;42.09
20656;BME280;10487;53.320;8.672;2023-04-22T01:20:20;100794.88;;;9.00;42.13
20656;BME280;10487;53.320;8.672;2023-04-22T01:23:23;100793.28;;;8.98;41.95
20656;BME280;10487;53.320;8.672;2023-04-22T01:26:24;100795.28;;;8.94;42.07
20656;BME280;10487;53.320;8.672;2023-04-22T01:29:26;100784.94;;;8.90;42.20
20656;BME280;10487;53.320;8.672;2023-04-22T01:32:28;100792.28;;;8.86;42.10
20656;BME280;10487;53.320;8.672;2023-04-22T01:35:31;100786.31;;;8.83;42.16
20656;BME280;10487;53.320;8.672;2023-04-22T01:38:37;100790.88;;;8.81;nan
20656;BME280;10487;53.320;8.672;2023-04-22T01:41:39;100795.44;;;8.79;42.21
20656;BME280;10487;53.320;8.672;2023-04-22T01:44:41;100789.47;;;8.75;42.30
20656;BME280;10487;53.320;8.672;2023-04-22T01:47:43;100784.25;;;8.74;42.16
20656;BME280;10487;53.320;8.672;2023-04-22T01:50:45;100787.00;;;8.72;42.29
20656;BME280;10487;53.320;8.672;2023-04-22T01:53:50;100780.94;;;8.70;42.32
20656;BME280;10487;53.320;8.672;2023-04-22T01:56:53;100776.66;;;8.68;42.34
20656;BME280;10487;53.320;8.672;2023-04-22T01:59:54;100788.34;;;8.65;42.30
20656;BME280;10487;53.320;8.672;2023-04-22T02:02:56;100783.03;;;8.65;42.34
20656;BME280;10487;53.320;8.672;2023-04-22T02:05:58;100777.72;;;8.65;42.29
20656;BME280;10487;53.320;8.672;2023-04-22T02:08:59;100781.22;;;8.66;42.33
20656;BME280;10487;53.320;8.672;2023-04-22T02:12:01;100785.88;;;8.62;42.44
20656;BME280;10487;53.320;8.672;2023-04-22T02:15:03;100773.63;;;8.59;42.36
20656;BME280;10487;53.320;8.672;2023-04-22T02:18:06;100773.84;;;8.56;42.34
20656;BME280;10487;53.320;8.672;2023-04-22T02:21:08;100765.97;;;8.55;42.30
20656;BME280;10487;53.320;8.672;2023-04-22T02:24:10;100765.97;;;8.55;42.43
20656;BME280;10487;53.320;8.672;2023-04-22T02:27:11;100769.38;;;8.57;42.30
20656;BME280;10487;53.320;8.672;2023-04-22T02:30:13;100770.44;;;8.54;42.49
20656;BME280;10487;53.320;8.672;2023-04-22T02:33:15;100762.47;;;8.54;42.54
20656;BME280;10487;53.320;8.672;2023-04-22T02:36:16;100769.59;;;8.54;42.55
20656;BME280;10487;53.320;8.672;2023-04-22T02:39:18;100767.00;;;8.52;42.44
20656;BME280;10487;53.320;8.672;2023-04-22T02:42:19;100761.69;;;8.52;42.47
20656;BME280;10487;53.320;8.672;2023-04-22T02:45:21;100757.34;;;8.51;42.59
20656;BME280;10487;53.320;8.672;2023-04-22T02:48:23;100758.09;;;8.53;42.54
20656;BME280;10487;53.320;8.672;2023-04-22T02:51:24;100744.91;;;8.52;42.53
20656;BME280;10487;53.320;8.672;2023-04-22T02:54:27;100753.81;;;8.51;42.66
20656;BME280;10487;53.320;8.672;2023-04-22T02:57:28;100746.78;;;8.50;42.66
20656;BME280;10487;53.320;8.672;2023-04-22T03:00:30;100745.19;;;8.47;42.71
20656;BME280;10487;53.320;8.672;2023-04-22T03:03:32;100747.09;;;8.45;42.74
20656;BME280;10487;53.320;8.672;2023-04-22T03:06:34;100750.81;;;8.43;42.79
20656;BME280;10487;53.320;8.672;2023-04-22T03:09:35;100741.97;;;8.42;42.82
20656;BME280;10487;53.320;8.672;2023-04-22T03:12:37;100739.41;;;8.41;42.68
20656;BME280;10487;53.320;8.672;2023-04-22T03:15:40;100732.50;;;8.38;42.71
20656;BME280;10487;53.320;8.672;2023-04-22T03:18:41;100727.56;;;8.32;42.71
20656;BME280;10487;53.320;8.672;2023-04-22T03:21:43;100727.13;;;8.26;42.77
20656;BME280;10487;53.320;8.672;2023-04-22T03:24:44;100726.75;;;8.18;42.98
20656;BME280;10487;53.320;8.672;2023-04-22T03:27:46;100721.84;;;8.12;42.89
20656;BME280;10487;53.320;8.672;2023-04-22T03:30:48;100719.63;;;8.04;43.03
20656;BME280;10487;53.320;8.672;2023-04-22T03:33:49;100716.31;;;8.00;43.16
20656;BME280;10487;53.320;8.672;2023-04-22T03:36:51;100715.56;;;7.98;43.16
20656;BME280;10487;53.320;8.672;2023-04-22T03:39:53;100719.13;;;7.97;43.06
20656;BME280;10487;53.320;8.672;2023-04-22T03:42:54;100710.41;;;7.95;43.05
20656;BME280;10487;53.320;8.672;2023-04-22T03:45:56;100707.75;;;7.95;43.15
20656;BME280;10487;53.320;8.672;2023-04-22T03:48:58;100709.50;;;7.96;43.01
20656;BME280;10487;53.320;8.672;2023-04-22T03:51:59;100705.84;;;7.97;42.93
20656;BME280;10487;53.320;8.672;2023-04-22T03:55:01;100702.25;;;7.98;43.20
20656;BME280;10487;53.320;8.672;2023-04-22T03:58:03;100698.66;;;7.99;43.08
20656;BME280;10487;53.320;8.672;2023-04-22T04:01:04;100706.53;;;8.01;43.12
20656;BME280;10487;53.320;8.672;2023-04-22T04:04:06;100696.75;;;8.02;43.17
20656;BME280;10487;53.320;8.672;2023-04-22T04:07:08;100706.53;;;8.01;43.12
20656;BME280;10487;53.320;8.672;2023-04-22T04:10:10;100705.59;;;8.02;43.08
20656;BME280;10487;53.320;8.672;2023-04-22T04:13:12;100706.34;;;8.04;43.27
20656;BME280;10487;53.320;8.672;2023-04-22T04:16:13;100689.38;;;8.07;43.21
20656;BME280;10487;53.320;8.672;2023-04-22T04:19:15;100694.50;;;8.10;43.08
20656;BME280;10487;53.320;8.672;2023-04-22T04:22:17;100692.59;;;8.12;43.16
20656;BME280;10487;53.320;8.672;2023-04-22T04:25:18;100688.97;;;8.13;43.20
20656;BME280;10487;53.320;8.672;2023-04-22T04:28:21;100687.09;;;8.15;43.19
20656;BME280;10487;53.320;8.672;2023-04-22T04:31:23;100686.88;;;8.18;43.38
20656;BME280;10487;53.320;8.672;2023-04-22T04:34:28;100685.94;;;8.19;43.41
20656;BME280;10487;53.320;8.672;2023-04-22T04:37:29;100685.75;;;8.22;43.45
20656;BME280;10487;53.320;8.672;2023-04-22T04:40:32;100678.41;;;8.25;43.40
20656;BME280;10487;53.320;8.672;2023-04-22T04:43:34;100674.63;;;8.29;43.10
20656;BME280;10487;53.320;8.672;2023-04-22T04:46:36;100666.53;;;8.31;43.21
20656;BME280;10487;53.320;8.672;2023-04-22T04:49:38;100672.59;;;8.33;43.37
20656;BME280;10487;53.320;8.672;2023-04-22T04:52:41;100674.31;;;8.34;43.39
20656;BME280;10487;53.320;8.672;2023-04-22T04:55:42;100676.00;;;8.35;43.44
20656;BME280;10487;53.320;8.672;2023-04-22T04:58:44;100672.59;;;8.33;43.49
20656;BME280;10487;53.320;8.672;2023-04-22T05:01:45;100671.84;;;8.31;43.55
20656;BME280;10487;53.320;8.672;2023-04-22T05:04:47;100670.13;;;8.30;43.48
20656;BME280;10487;53.320;8.672;2023-04-22T05:07:49;100661.41;;;8.28;43.57
20656;BME280;10487;53.320;8.672;2023-04-22T05:10:52;100665.03;;;8.27;43.63
20656;BME280;10487;53.320;8.672;2023-04-22T05:13:55;100664.81;;;8.30;43.59
20656;BME280;10487;53.320;8.672;2023-04-22T05:16:56;100659.22;;;8.34;43.60
20656;BME280;10487;53.320;8.672;2023-04-22T05:19:58;100671.03;;;8.43;43.57
20656;BME280;10487;53.320;8.672;2023-04-22T05:23:00;100654.69;;;8.49;43.58
20656;BME280;10487;53.320;8.672;2023-04-22T05:26:02;100659.50;;;8.56;43.46
20656;BME280;10487;53.320;8.672;2023-04-22T05:29:03;100651.75;;;8.66;43.53
20656;BME280;10487;53.320;8.672;2023-04-22T05:32:06;100656.44;;;8.75;43.47
20656;BME280;10487;53.320;8.672;2023-04-22T05:35:09;100655.72;;;8.86;43.40
20656;BME280;10487;53.320;8.672;2023-04-22T05:38:11;100650.63;;;8.95;43.42
20656;BME280;10487;53.320;8.672;2023-04-22T05:41:13;100661.41;;;9.06;43.46
20656;BME280;10487;53.320;8.672;2023-04-22T05:44:14;100659.81;;;9.16;43.52
20656;BME280;10487;53.320;8.672;2023-04-22T05:47:17;100671.41;;;9.28;43.44
20656;BME280;10487;53.320;8.672;2023-04-22T05:50:19;100668.88;;;9.39;43.42
20656;BME280;10487;53.320;8.672;2023-04-22T05:53:23;100666.44;;;9.49;43.39
20656;BME280;10487;53.320;8.672;2023-04-22T05:56:25;100681.66;;;9.59;43.40
20656;BME280;10487;53.320;8.672;2023-04-22T05:59:26;100665.03;;;9.68;43.45
20656;BME280;10487;53.320;8.672;2023-04-22T06:02:28;100668.09;;;9.75;43.45
20656;BME280;10487;53.320;8.672;2023-04-22T06:05:30;100665.84;;;9.81;43.35
20656;BME280;10487;53.320;8.672;2023-04-22T06:08:32;100667.00;;;9.90;43.39
20656;BME280;10487;53.320;8.672;2023-04-22T06:11:33;100663.88;;;9.96;43.41
20656;BME280;10487;53.320;8.672;2023-04-22T06:14:35;100663.47;;;10.02;43.44
20656;BME280;10487;53.320;8.672;2023-04-22T06:17:37;100675.16;;;10.12;43.54
20656;BME280;10487;53.320;8.672;2023-04-22T06:20:39;100666.25;;;10.24;43.50
20656;BME280;10487;53.320;8.672;2023-04-22T06:23:41;100676.88;;;10.37;43.55
20656;BME280;10487;53.320;8.672;2023-04-22T06:26:42;100670.06;;;10.45;43.47
20656;BME280;10487;53.320;8.672;2023-04-22T06:29:44;100677.59;;;10.51;43.24
20656;BME280;10487;53.320;8.672;2023-04-22T06:32:46;100667.44;;;10.57;43.33
20656;BME280;10487;53.320;8.672;2023-04-22T06:35:47;100668.88;;;10.61;43.28
20656;BME280;10487;53.320;8.672;2023-04-22T06:38:49;100666.84;;;10.64;43.26
20656;BME280;10487;53.320;8.672;2023-04-22T06:41:50;100666.50;;;10.69;43.42
20656;BME280;10487;53.320;8.672;2023-04-22T06:44:52;100668.94;;;10.72;43.54
20656;BME280;10487;53.320;8.672;2023-04-22T06:47:53;100667.00;;;10.74;43.44
20656;BME280;10487;53.320;8.672;2023-04-22T06:50:55;100656.22;;;10.75;43.52
20656;BME280;10487;53.320;8.672;2023-04-22T06:53:57;100659.41;;;10.80;43.54
20656;BME280;10487;53.320;8.672;2023-04-22T06:56:59;100658.06;;;10.86;43.53
20656;BME280;10487;53.320;8.672;2023-04-22T07:00:03;100649.59;;;10.92;43.45
20656;BME280;10487;53.320;8.672;2023-04-22T07:03:05;100659.78;;;10.98;43.33
20656;BME280;10487;53.320;8.672;2023-04-22T07:06:07;100652.28;;;11.03;43.42
20656;BME280;10487;53.320;8.672;2023-04-22T07:09:08;100651.97;;;11.07;43.42
20656;BME280;10487;53.320;8.672;2023-04-22T07:12:10;100655.00;;;11.14;43.29
20656;BME280;10487;53.320;8.672;2023-04-22T07:15:12;100655.34;;;11.20;43.40
20656;BME280;10487;53.320;8.672;2023-04-22T07:18:13;100656.56;;;11.28;43.57
20656;BME280;10487;53.320;8.672;2023-04-22T07:21:15;100650.91;;;11.32;43.60
20656;BME280;10487;53.320;8.672;2023-04-22T07:24:17;100655.88;;;11.37;43.41
20656;BME280;10487;53.320;8.672;2023-04-22T07:27:18;100650.16;;;11.41;43.44
20656;BME280;10487;53.320;8.672;2023-04-22T07:30:20;100652.34;;;11.47;43.37
20656;BME280;10487;53.320;8.672;2023-04-22T07:33:22;100646.56;;;11.53;43.77
20656;BME280;10487;53.320;8.672;2023-04-22T07:36:23;100636.47;;;11.68;43.40
20656;BME280;10487;53.320;8.672;2023-04-22T07:39:25;100634.78;;;11.89;43.61
20656;BME280;10487;53.320;8.672;2023-04-22T07:42:27;100629.84;;;12.16;43.35
20656;BME280;10487;53.320;8.672;2023-04-22T07:45:29;100636.56;;;12.42;43.66
20656;BME280;10487;53.320;8.672;2023-04-22T07:48:30;100632.84;;;12.66;43.43
20656;BME280;10487;53.320;8.672;2023-04-22T07:51:32;100634.94;;;12.83;43.12
20656;BME280;10487;53.320;8.672;2023-04-22T07:54:33;100638.88;;;12.99;43.40
20656;BME280;10487;53.320;8.672;2023-04-22T07:57:35;100639.53;;;13.13;43.46
20656;BME280;10487;53.320;8.672;2023-04-22T08:00:39;100643.69;;;13.26;43.40
20656;BME280;10487;53.320;8.672;2023-04-22T08:03:40;100654.31;;;13.37;43.13
20656;BME280;10487;53.320;8.672;2023-04-22T08:06:42;100656.22;;;13.46;43.31
20656;BME280;10487;53.320;8.672;2023-04-22T08:09:44;100651.22;;;13.53;43.07
20656;BME280;10487;53.320;8.672;2023-04-22T08:12:46;100656.88;;;13.59;43.07
20656;BME280;10487;53.320;8.672;2023-04-22T08:15:47;100648.16;;;13.67;43.01
20656;BME280;10487;53.320;8.672;2023-04-22T08:18:49;100652.69;;;13.76;43.15
20656;BME280;10487;53.320;8.672;2023-04-22T08:21:52;100654.41;;;13.77;43.19
20656;BME280;10487;53.320;8.672;2023-04-22T08:24:54;100649.34;;;13.84;43.32
20656;BME280;10487;53.320;8.672;2023-04-22T08:27:55;100642.06;;;13.95;43.29
20656;BME280;10487;53.320;8.672;2023-04-22T08:30:57;100652.38;;;14.09;42.91
20656;BME280;10487;53.320;8.672;2023-04-22T08:33:59;100650.00;;;14.25;43.28
20656;BME280;10487;53.320;8.672;2023-04-22T08:37:01;100645.00;;;14.42;43.14
20656;BME280;10487;53.320;8.672;2023-04-22T08:40:03;100638.22;;;14.57;42.94
20656;BME280;10487;53.320;8.672;2023-04-22T08:43:05;100655.19;;;14.67;43.01
20656;BME280;10487;53.320;8.672;2023-04-22T08:46:07;100641.03;;;14.74;42.80
20656;BME280;10487;53.320;8.672;2023-04-22T08:49:09;100645.28;;;14.77;42.96
20656;BME280;10487;53.320;8.672;2023-04-22T08:52:11;100635.09;;;14.80;42.80
20656;BME280;10487;53.320;8.672;2023-04-22T08:55:15;100634.53;;;14.86;42.93
20656;BME280;10487;53.320;8.672;2023-04-22T08:58:17;100632.09;;;14.93;42.71
20656;BME280;10487;53.320;8.672;2023-04-22T09:01:18;100624.34;;;14.99;42.78
20656;BME280;10487;53.320;8.672;2023-04-22T09:04:21;100622.59;;;15.08;42.70
20656;BME280;10487;53.320;8.672;2023-04-22T09:07:26;100613.53;;;15.19;42.76
20656;BME280;10487;53.320;8.672;2023-04-22T09:10:31;100614.81;;;15.34;42.78
20656;BME280;10487;53.320;8.672;2023-04-22T09:13:34;100607.22;;;15.47;42.55
20656;BME280;10487;53.320;8.672;2023-04-22T09:16:40;100600.38;;;15.62;42.39
20656;BME280;10487;53.320;8.672;2023-04-22T09:19:45;100590.00;;;15.67;42.68
20656;BME280;10487;53.320;8.672;2023-04-22T09:22:48;100589.03;;;15.68;42.39
20656;BME280;10487;53.320;8.672;2023-04-22T09:25:50;100586.88;;;15.72;42.46
20656;BME280;10487;53.320;8.672;2023-04-22T09:28:54;100593.50;;;15.77;42.52
20656;BME280;10487;53.320;8.672;2023-04-22T09:31:56;100583.53;;;15.87;42.54
20656;BME280;10487;53.320;8.672;2023-04-22T09:34:58;100587.88;;;15.98;42.43
20656;BME280;10487;53.320;8.672;2023-04-22T09:38:01;100577.63;;;16.11;42.22
20656;BME280;10487;53.320;8.672;2023-04-22T09:41:08;100578.16;;;16.32;42.51
20656;BME280;10487;53.320;8.672;2023-04-22T09:44:14;100575.00;;;16.54;42.21
20656;BME280;10487;53.320;8.672;2023-04-22T09:47:16;100574.81;;;16.73;42.08
20656;BME280;10487;53.320;8.672;2023-04-22T09:50:23;100572.88;;;16.83;42.21
20656;BME280;10487;53.320;8.672;2023-04-22T09:53:25;100576.41;;;16.84;41.74
20656;BME280;10487;53.320;8.672;2023-04-22T09:59:51;100565.56;;;16.93;41.52
20656;BME280;10487;53.320;8.672;2023-04-22T10:02:53;100565.69;;;17.10;41.69
20656;BME280;10487;53.320;8.672;2023-04-22T10:05:55;100569.66;;;17.31;41.71
20656;BME280;10487;53.320;8.672;2023-04-22T10:08:58;100567.88;;;17.48;41.40
20656;BME280;10487;53.320;8.672;2023-04-22T10:12:00;100561.44;;;17.67;41.41
20656;BME280;10487;53.320;8.672;2023-04-22T10:15:06;100554.75;;;17.95;41.48
20656;BME280;10487;53.320;8.672;2023-04-22T10:18:11;100560.22;;;18.19;41.20
20656;BME280;10487;53.320;8.672;2023-04-22T10:21:14;100560.75;;;18.31;41.17
20656;BME280;10487;53.320;8.672;2023-04-22T10:24:18;100551.66;;;18.40;40.87
20656;BME280;10487;53.320;8.672;2023-04-22T10:27:20;100560.09;;;18.53;41.17
20656;BME280;10487;53.320;8.672;2023-04-22T10:30:27;100550.97;;;18.62;40.86
20656;BME280;10487;53.320;8.672;2023-04-22T10:37:00;100554.16;;;18.98;40.96
20656;BME280;10487;53.320;8.672;2023-04-22T10:40:11;100551.63;;;19.12;40.79
20656;BME280;10487;53.320;8.672;2023-04-22T10:43:18;100551.75;;;19.27;40.96
20656;BME280;10487;53.320;8.672;2023-04-22T10:49:35;100558.78;;;19.52;40.75
20656;BME280;10487;53.320;8.672;2023-04-22T10:52:37;100554.19;;;19.61;40.29
20656;BME280;10487;53.320;8.672;2023-04-22T10:55:51;100533.97;;;19.71;40.44
20656;BME280;10487;53.320;8.672;2023-04-22T10:58:55;100543.59;;;19.82;40.40
20656;BME280;10487;53.320;8.672;2023-04-22T11:02:15;100533.41;;;19.92;40.52
20656;BME280;10487;53.320;8.672;2023-04-22T11:05:25;100528.47;;;19.95;40.26
20656;BME280;10487;53.320;8.672;2023-04-22T11:08:27;100528.84;;;19.92;40.21
20656;BME280;10487;53.320;8.672;2023-04-22T11:11:29;100523.53;;;19.99;40.26
20656;BME280;10487;53.320;8.672;2023-04-22T11:14:31;100513.84;;;20.04;40.28
20656;BME280;10487;53.320;8.672;2023-04-22T11:17:34;100517.41;;;20.05;40.01
20656;BME280;10487;53.320;8.672;2023-04-22T11:20:35;100517.41;;;20.05;40.04
20656;BME280;10487;53.320;8.672;2023-04-22T11:23:37;100504.78;;;19.97;40.09
20656;BME280;10487;53.320;8.672;2023-04-22T11:26:39;100499.34;;;19.97;40.25
20656;BME280;10487;53.320;8.672;2023-04-22T11:29:41;100493.69;;;20.07;39.94
20656;BME280;10487;53.320;8.672;2023-04-22T11:32:45;100492.59;;;20.16;39.94
20656;BME280;10487;53.320;8.672;2023-04-22T11:35:48;100476.28;;;20.24;39.90
20656;BME280;10487;53.320;8.672;2023-04-22T11:38:54;100480.81;;;20.32;39.79
20656;BME280;10487;53.320;8.672;2023-04-22T11:41:56;100483.88;;;20.29;39.79
20656;BME280;10487;53.320;8.672;2023-04-22T11:44:58;100477.44;;;20.30;39.79
20656;BME280;10487;53.320;8.672;2023-04-22T11:48:01;100481.50;;;20.26;39.70
20656;BME280;10487;53.320;8.672;2023-04-22T11:51:10;100476.59;;;20.29;39.87
20656;BME280;10487;53.320;8.672;2023-04-22T11:54:12;100465.03;;;20.35;39.60
20656;BME280;10487;53.320;8.672;2023-04-22T11:57:15;100456.16;;;20.41;39.47
20656;BME280;10487;53.320;8.672;2023-04-22T12:00:18;100459.78;;;20.34;39.32
20656;BME280;10487;53.320;8.672;2023-04-22T12:03:22;100456.47;;;20.24;39.34
20656;BME280;10487;53.320;8.672;2023-04-22T12:06:29;100444.44;;;20.26;39.32
20656;BME280;10487;53.320;8.672;2023-04-22T12:09:33;100448.78;;;20.35;39.38
20656;BME280;10487;53.320;8.672;2023-04-22T12:12:38;100434.31;;;20.43;39.22
20656;BME280;10487;53.320;8.672;2023-04-22T12:15:43;100434.13;;;20.44;39.32
20656;BME280;10487;53.320;8.672;2023-04-22T12:18:54;100452.56;;;20.49;39.32
20656;BME280;10487;53.320;8.672;2023-04-22T12:21:56;100446.81;;;20.44;39.21
20656;BME280;10487;53.320;8.672;2023-04-22T12:24:59;100450.75;;;20.41;39.14
20656;BME280;10487;53.320;8.672;2023-04-22T12:28:00;100449.44;;;20.37;39.23
20656;BME280;10487;53.320;8.672;2023-04-22T12:31:02;100440.09;;;20.40;39.15
20656;BME280;10487;53.320;8.672;2023-04-22T12:34:04;100439.50;;;20.52;39.05
20656;BME280;10487;53.320;8.672;2023-04-22T12:37:06;100446.44;;;20.69;39.07
20656;BME280;10487;53.320;8.672;2023-04-22T12:40:08;100431.09;;;20.77;38.94
20656;BME280;10487;53.320;8.672;2023-04-22T12:43:10;100431.59;;;20.80;38.92
20656;BME280;10487;53.320;8.672;2023-04-22T12:46:12;100435.75;;;20.83;38.87
20656;BME280;10487;53.320;8.672;2023-04-22T12:49:14;100422.03;;;20.84;38.89
20656;BME280;10487;53.320;8.672;2023-04-22T12:52:16;100431.59;;;20.80;38.77
20656;BME280;10487;53.320;8.672;2023-04-22T12:55:17;100427.25;;;20.71;38.75
20656;BME280;10487;53.320;8.672;2023-04-22T12:58:21;100418.41;;;20.62;38.78
20656;BME280;10487;53.320;8.672;2023-04-22T13:01:22;100423.34;;;20.59;38.76
20656;BME280;10487;53.320;8.672;2023-04-22T13:04:24;100426.41;;;20.56;39.07
20656;BME280;10487;53.320;8.672;2023-04-22T13:07:26;100416.13;;;20.51;38.81
20656;BME280;10487;53.320;8.672;2023-04-22T13:10:28;100417.81;;;20.52;38.61
20656;BME280;10487;53.320;8.672;2023-04-22T13:13:30;100398.28;;;20.57;38.65
20656;BME280;10487;53.320;8.672;2023-04-22T13:16:31;100399.22;;;20.64;38.48
20656;BME280;10487;53.320;8.672;2023-04-22T13:19:33;100400.72;;;20.66;38.54
20656;BME280;10487;53.320;8.672;2023-04-22T13:22:35;100400.81;;;20.58;38.58
20656;BME280;10487;53.320;8.672;2023-04-22T13:25:37;100390.44;;;20.47;38.57
20656;BME280;10487;53.320;8.672;2023-04-22T13:28:39;100393.63;;;20.28;38.79
20656;BME280;10487;53.320;8.672;2023-04-22T13:31:41;100388.00;;;20.15;38.79
20656;BME280;10487;53.320;8.672;2023-04-22T13:34:44;100377.91;;;20.09;38.64
20656;BME280;10487;53.320;8.672;2023-04-22T13:37:46;100382.88;;;20.05;38.60
20656;BME280;10487;53.320;8.672;2023-04-22T13:40:47;100374.75;;;20.05;38.46
20656;BME280;10487;53.320;8.672;2023-04-22T13:43:49;100369.31;;;20.05;38.41
20656;BME280;10487;53.320;8.672;2023-04-22T13:46:54;100362.13;;;20.13;38.75
20656;BME280;10487;53.320;8.672;2023-04-22T13:49:56;100362.31;;;20.26;38.26
20656;BME280;10487;53.320;8.672;2023-04-22T13:52:58;100351.34;;;20.42;38.33
20656;BME280;10487;53.320;8.672;2023-04-22T13:55:59;100344.09;;;20.57;38.15
20656;BME280;10487;53.320;8.672;2023-04-22T13:59:01;100336.41;;;20.75;37.83
20656;BME280;10487;53.320;8.672;2023-04-22T14:02:03;100327.78;;;20.86;38.07
20656;BME280;10487;53.320;8.672;2023-04-22T14:05:05;100328.53;;;20.95;37.94
20656;BME280;10487;53.320;8.672;2023-04-22T14:08:07;100336.38;;;21.04;38.00
20656;BME280;10487;53.320;8.672;2023-04-22T14:11:09;100320.84;;;21.13;37.84
20656;BME280;10487;53.320;8.672;2023-04-22T14:14:11;100303.22;;;21.23;37.86
20656;BME280;10487;53.320;8.672;2023-04-22T14:17:12;100307.69;;;21.31;37.75
20656;BME280;10487;53.320;8.672;2023-04-22T14:20:14;100304.59;;;21.34;37.83
20656;BME280;10487;53.320;8.672;2023-04-22T14:23:16;100305.56;;;21.26;37.59
20656;BME280;10487;53.320;8.672;2023-04-22T14:26:18;100303.16;;;21.17;37.75
20656;BME280;10487;53.320;8.672;2023-04-22T14:29:20;100301.38;;;21.09;37.78
20656;BME280;10487;53.320;8.672;2023-04-22T14:32:22;100294.00;;;21.03;37.86
20656;BME280;10487;53.320;8.672;2023-04-22T14:35:25;100289.03;;;21.07;37.82
20656;BME280;10487;53.320;8.672;2023-04-22T14:38:27;100286.13;;;21.08;37.66
20656;BME280;10487;53.320;8.672;2023-04-22T14:41:30;100284.38;;;21.01;37.63
20656;BME280;10487;53.320;8.672;2023-04-22T14:44:31;100277.44;;;20.98;37.80
20656;BME280;10487;53.320;8.672;2023-04-22T14:47:33;100270.84;;;20.86;37.50
20656;BME280;10487;53.320;8.672;2023-04-22T14:50:34;100270.97;;;20.78;37.72
20656;BME280;10487;53.320;8.672;2023-04-22T14:53:36;100266.38;;;20.79;37.57
20656;BME280;10487;53.320;8.672;2023-04-22T14:56:38;100266.75;;;20.76;37.59
20656;BME280;10487;53.320;8.672;2023-04-22T14:59:40;100259.03;;;20.73;37.59
20656;BME280;10487;53.320;8.672;2023-04-22T15:02:43;100252.13;;;20.70;37.63
20656;BME280;10487;53.320;8.672;2023-04-22T15:05:44;100256.03;;;20.67;37.54
20656;BME280;10487;53.320;8.672;2023-04-22T15:08:49;100246.97;;;20.60;37.39
20656;BME280;10487;53.320;8.672;2023-04-22T15:11:54;100242.69;;;20.51;37.47
20656;BME280;10487;53.320;8.672;2023-04-22T15:14:56;100243.47;;;20.45;37.56
20656;BME280;10487;53.320;8.672;2023-04-22T15:17:58;100252.94;;;20.41;37.55
20656;BME280;10487;53.320;8.672;2023-04-22T15:21:00;100245.41;;;20.37;37.41
20656;BME280;10487;53.320;8.672;2023-04-22T15:24:03;100238.47;;;20.34;37.52
20656;BME280;10487;53.320;8.672;2023-04-22T15:27:05;100233.91;;;20.35;37.53
20656;BME280;10487;53.320;8.672;2023-04-22T15:30:08;100235.03;;;20.40;37.46
20656;BME280;10487;53.320;8.672;2023-04-22T15:33:11;100232.63;;;20.45;37.25
20656;BME280;10487;53.320;8.672;2023-04-22T15:36:13;100230.56;;;20.47;37.49
20656;BME280;10487;53.320;8.672;2023-04-22T15:39:19;100217.88;;;20.48;37.38
20656;BME280;10487;53.320;8.672;2023-04-22T15:42:20;100215.81;;;20.50;37.37
20656;BME280;10487;53.320;8.672;2023-04-22T15:45:22;100209.81;;;20.54;37.22
20656;BME280;10487;53.320;8.672;2023-04-22T15:48:23;100206.88;;;20.56;37.41
20656;BME280;10487;53.320;8.672;2023-04-22T15:51:26;100205.41;;;20.53;37.19
20656;BME280;10487;53.320;8.672;2023-04-22T15:54:28;100200.13;;;20.45;37.39
20656;BME280;10487;53.320;8.672;2023-04-22T15:57:30;100198.97;;;20.40;37.29
20656;BME280;10487;53.320;8.672;2023-04-22T16:00:35;100187.66;;;20.36;37.10
20656;BME280;10487;53.320;8.672;2023-04-22T16:03:37;100188.03;;;20.33;37.09
20656;BME280;10487;53.320;8.672;2023-04-22T16:06:39;100186.53;;;20.31;37.22
20656;BME280;10487;53.320;8.672;2023-04-22T16:09:40;100184.03;;;20.29;37.12